createdAt,value
2023-03-22T00:00:01.966Z,1.00
2023-03-22T00:00:25.126Z,1.00
2023-03-22T00:00:47.890Z,1.00
2023-03-22T00:01:11.525Z,1.00
2023-03-22T00:01:34.933Z,1.00
2023-03-22T00:01:59.849Z,1.00
2023-03-22T00:02:23.190Z,1.00
2023-03-22T00:02:48.422Z,1.00
2023-03-22T00:03:11.551Z,1.00
2023-03-22T00:03:34.338Z,1.00
2023-03-22T00:03:57.371Z,1.00
2023-03-22T00:04:22.552Z,1.00
2023-03-22T00:04:45.295Z,1.00
2023-03-22T00:05:09.956Z,1.00
2023-03-22T00:05:32.791Z,1.00
2023-03-22T00:06:00.324Z,1.00
2023-03-22T00:06:25.056Z,1.00
2023-03-22T00:06:47.844Z,1.00
2023-03-22T00:07:10.593Z,1.00
2023-03-22T00:07:33.274Z,1.00
2023-03-22T00:07:58.253Z,1.00
2023-03-22T00:08:23.855Z,1.00
2023-03-22T00:08:48.550Z,1.00
2023-03-22T00:09:15.092Z,1.00
2023-03-22T00:09:37.906Z,1.00
2023-03-22T00:10:00.801Z,1.00
2023-03-22T00:10:25.851Z,1.00
2023-03-22T00:10:49.154Z,1.00
2023-03-22T00:11:14.938Z,1.00
2023-03-22T00:11:37.713Z,1.00
2023-03-22T00:12:03.441Z,1.00
2023-03-22T00:12:26.158Z,1.00
2023-03-22T00:12:48.900Z,1.00
2023-03-22T00:13:12.204Z,1.00
2023-03-22T00:13:35.785Z,1.00
2023-03-22T00:14:01.600Z,1.00
2023-03-22T00:14:24.406Z,1.00
2023-03-22T00:14:50.678Z,1.00
2023-03-22T00:15:15.834Z,1.00
2023-03-22T00:15:39.776Z,1.00
2023-03-22T00:16:05.007Z,1.00
2023-03-22T00:16:28.074Z,1.00
2023-03-22T00:16:50.891Z,1.00
2023-03-22T00:17:15.819Z,1.00
2023-03-22T00:17:38.503Z,1.00
2023-03-22T00:18:03.416Z,1.00
2023-03-22T00:18:26.238Z,1.00
2023-03-22T00:18:51.428Z,1.00
2023-03-22T00:19:14.099Z,1.00
2023-03-22T00:19:39.033Z,1.00
2023-03-22T00:20:01.769Z,1.00
2023-03-22T00:20:26.981Z,1.00
2023-03-22T00:20:52.119Z,1.00
2023-03-22T00:21:18.017Z,1.00
2023-03-22T00:21:40.993Z,1.00
2023-03-22T00:22:06.277Z,1.00
2023-03-22T00:22:29.109Z,1.00
2023-03-22T00:22:51.824Z,1.00
2023-03-22T00:23:16.691Z,1.00
2023-03-22T00:23:41.641Z,1.00
2023-03-22T00:24:07.048Z,1.00
2023-03-22T00:24:31.166Z,1.00
2023-03-22T00:24:53.979Z,1.00
2023-03-22T00:25:16.800Z,1.00
2023-03-22T00:25:42.503Z,1.00
2023-03-22T00:26:05.604Z,1.00
2023-03-22T00:26:28.335Z,1.00
2023-03-22T00:26:51.044Z,1.00
2023-03-22T00:27:13.741Z,1.00
2023-03-22T00:27:36.533Z,1.00
2023-03-22T00:27:59.248Z,1.00
2023-03-22T00:28:24.248Z,1.00
2023-03-22T00:28:46.995Z,1.00
2023-03-22T00:29:09.804Z,1.00
2023-03-22T00:29:34.978Z,1.00
2023-03-22T00:29:57.703Z,1.00
2023-03-22T00:30:20.643Z,1.00
2023-03-22T00:30:43.597Z,1.00
2023-03-22T00:31:06.760Z,1.00
2023-03-22T00:31:29.532Z,1.00
2023-03-22T00:31:54.427Z,1.00
2023-03-22T00:32:17.224Z,1.00
2023-03-22T00:32:42.400Z,1.00
2023-03-22T00:33:10.191Z,1.00
2023-03-22T00:33:33.179Z,1.00
2023-03-22T00:33:56.325Z,1.00
2023-03-22T00:34:21.609Z,1.00
2023-03-22T00:34:46.721Z,1.00
2023-03-22T00:35:09.670Z,1.00
2023-03-22T00:35:35.008Z,1.00
2023-03-22T00:36:02.440Z,1.00
2023-03-22T00:36:25.331Z,1.00
2023-03-22T00:36:50.243Z,1.00
2023-03-22T00:37:12.904Z,1.00
2023-03-22T00:37:38.774Z,1.00
2023-03-22T00:38:06.591Z,1.00
2023-03-22T00:38:44.969Z,1.00
2023-03-22T00:39:08.059Z,1.00
2023-03-22T00:39:32.243Z,1.00
2023-03-22T00:39:57.228Z,1.00
2023-03-22T00:40:20.630Z,1.00
2023-03-22T00:40:43.356Z,1.00
2023-03-22T00:41:11.872Z,1.00
2023-03-22T00:41:34.512Z,1.00
2023-03-22T00:41:59.519Z,1.00
2023-03-22T00:42:22.400Z,1.00
2023-03-22T00:42:45.176Z,1.00
2023-03-22T00:43:07.985Z,3.70
2023-03-22T00:43:30.724Z,6.20
2023-03-22T00:43:55.842Z,1.00
2023-03-22T00:44:18.581Z,1.00
2023-03-22T00:44:43.718Z,2.30
2023-03-22T00:45:08.164Z,3.90
2023-03-22T00:45:30.987Z,4.50
2023-03-22T00:45:55.949Z,3.10
2023-03-22T00:46:20.165Z,3.20
2023-03-22T00:46:45.508Z,2.20
2023-03-22T00:47:08.699Z,2.60
2023-03-22T00:47:33.860Z,7.60
2023-03-22T00:47:56.696Z,1.00
2023-03-22T00:48:19.410Z,3.10
2023-03-22T00:48:44.186Z,2.80
2023-03-22T00:49:06.902Z,5.20
2023-03-22T00:49:31.938Z,7.40
2023-03-22T00:49:54.717Z,2.30
2023-03-22T00:50:19.676Z,2.50
2023-03-22T00:50:42.449Z,4.80
2023-03-22T00:51:07.980Z,4.60
2023-03-22T00:51:33.278Z,1.00
2023-03-22T00:51:56.667Z,4.00
2023-03-22T00:52:21.682Z,7.00
2023-03-22T00:52:44.358Z,6.90
2023-03-22T00:53:09.371Z,8.60
2023-03-22T00:53:36.628Z,7.80
2023-03-22T00:53:59.530Z,7.10
2023-03-22T00:54:22.811Z,10.50
2023-03-22T00:54:49.217Z,8.60
2023-03-22T00:55:11.982Z,15.40
2023-03-22T00:55:34.725Z,10.80
2023-03-22T00:55:57.416Z,14.00
2023-03-22T00:56:20.329Z,12.20
2023-03-22T00:56:45.623Z,13.00
2023-03-22T00:57:08.369Z,15.70
2023-03-22T00:57:33.604Z,15.00
2023-03-22T00:57:57.021Z,11.30
2023-03-22T00:58:19.768Z,13.50
2023-03-22T00:58:42.882Z,10.50
2023-03-22T00:59:08.928Z,8.20
2023-03-22T00:59:31.739Z,3.10
2023-03-22T00:59:56.057Z,10.70
2023-03-22T01:00:19.209Z,10.20
2023-03-22T01:00:44.509Z,7.20
2023-03-22T01:01:07.576Z,10.50
2023-03-22T01:01:30.468Z,7.40
2023-03-22T01:01:55.358Z,8.60
2023-03-22T01:02:18.155Z,14.40
2023-03-22T01:02:41.797Z,10.90
2023-03-22T01:03:05.137Z,16.70
2023-03-22T01:03:27.981Z,15.20
2023-03-22T01:03:50.978Z,14.50
2023-03-22T01:04:18.201Z,13.40
2023-03-22T01:04:46.604Z,16.30
2023-03-22T01:05:09.632Z,12.50
2023-03-22T01:05:33.686Z,13.90
2023-03-22T01:05:56.436Z,10.90
2023-03-22T01:06:19.163Z,14.00
2023-03-22T01:06:41.825Z,16.20
2023-03-22T01:07:07.741Z,15.40
2023-03-22T01:07:30.469Z,17.60
2023-03-22T01:07:55.285Z,16.10
2023-03-22T01:08:18.082Z,19.10
2023-03-22T01:08:40.830Z,15.90
2023-03-22T01:09:05.144Z,17.90
2023-03-22T01:09:31.386Z,15.60
2023-03-22T01:09:55.564Z,16.80
2023-03-22T01:10:18.463Z,17.60
2023-03-22T01:10:42.000Z,15.50
2023-03-22T01:11:05.171Z,18.80
2023-03-22T01:11:28.160Z,19.70
2023-03-22T01:11:50.840Z,18.70
2023-03-22T01:12:13.634Z,21.20
2023-03-22T01:12:36.350Z,23.30
2023-03-22T01:12:59.036Z,21.10
2023-03-22T01:13:21.820Z,21.20
2023-03-22T01:13:44.554Z,22.30
2023-03-22T01:14:10.089Z,21.40
2023-03-22T01:14:32.890Z,18.50
2023-03-22T01:14:55.603Z,17.30
2023-03-22T01:15:18.430Z,15.80
2023-03-22T01:15:41.536Z,13.90
2023-03-22T01:16:04.672Z,13.10
2023-03-22T01:16:27.446Z,13.60
2023-03-22T01:16:50.457Z,18.90
2023-03-22T01:17:13.173Z,14.10
2023-03-22T01:17:38.483Z,13.90
2023-03-22T01:18:01.795Z,15.00
2023-03-22T01:18:24.448Z,13.70
2023-03-22T01:18:47.207Z,16.20
2023-03-22T01:19:13.197Z,15.30
2023-03-22T01:19:38.693Z,15.60
2023-03-22T01:20:01.424Z,13.90
2023-03-22T01:20:24.193Z,15.10
2023-03-22T01:20:46.882Z,15.90
2023-03-22T01:21:09.507Z,17.00
2023-03-22T01:21:34.643Z,16.10
2023-03-22T01:21:57.828Z,24.00
2023-03-22T01:22:20.729Z,19.60
2023-03-22T01:22:43.534Z,21.50
2023-03-22T01:23:06.347Z,19.90
2023-03-22T01:23:29.134Z,18.20
2023-03-22T01:23:51.852Z,17.50
2023-03-22T01:24:17.177Z,16.00
2023-03-22T01:24:39.884Z,17.10
2023-03-22T01:25:04.961Z,21.90
2023-03-22T01:25:27.926Z,18.50
2023-03-22T01:25:50.641Z,20.40
2023-03-22T01:26:13.332Z,19.70
2023-03-22T01:26:36.180Z,26.40
2023-03-22T01:26:58.879Z,23.50
2023-03-22T01:27:21.628Z,21.30
2023-03-22T01:27:44.352Z,20.60
2023-03-22T01:28:07.866Z,21.10
2023-03-22T01:28:30.917Z,22.00
2023-03-22T01:28:53.568Z,23.50
2023-03-22T01:29:18.621Z,21.40
2023-03-22T01:29:41.597Z,19.00
2023-03-22T01:30:04.901Z,22.30
2023-03-22T01:30:27.670Z,21.00
2023-03-22T01:30:51.567Z,21.10
2023-03-22T01:31:14.444Z,24.60
2023-03-22T01:31:37.137Z,26.20
2023-03-22T01:31:59.936Z,22.30
2023-03-22T01:32:22.697Z,24.10
2023-03-22T01:32:45.502Z,26.80
2023-03-22T01:33:08.249Z,24.80
2023-03-22T01:33:31.070Z,25.80
2023-03-22T01:33:53.767Z,23.80
2023-03-22T01:34:16.472Z,16.10
2023-03-22T01:34:39.268Z,17.30
2023-03-22T01:35:01.979Z,15.10
2023-03-22T01:35:24.684Z,18.10
2023-03-22T01:35:47.436Z,14.40
2023-03-22T01:36:11.309Z,16.90
2023-03-22T01:36:34.171Z,18.70
2023-03-22T01:36:56.833Z,19.10
2023-03-22T01:37:22.451Z,16.30
2023-03-22T01:37:45.372Z,14.30
2023-03-22T01:38:10.395Z,7.80
2023-03-22T01:38:35.528Z,9.20
2023-03-22T01:39:00.467Z,9.00
2023-03-22T01:39:23.183Z,10.30
2023-03-22T01:39:46.089Z,12.70
2023-03-22T01:40:11.498Z,11.90
2023-03-22T01:40:34.215Z,13.40
2023-03-22T01:40:57.485Z,14.50
2023-03-22T01:41:20.321Z,14.20
2023-03-22T01:41:45.239Z,14.70
2023-03-22T01:42:11.995Z,13.70
2023-03-22T01:42:34.667Z,15.90
2023-03-22T01:42:57.439Z,13.50
2023-03-22T01:43:20.228Z,15.40
2023-03-22T01:43:42.909Z,16.00
2023-03-22T01:44:12.936Z,14.30
2023-03-22T01:44:37.034Z,12.30
2023-03-22T01:45:35.265Z,20.50
2023-03-22T01:45:58.313Z,21.70
2023-03-22T01:46:21.103Z,22.30
2023-03-22T01:46:44.313Z,23.20
2023-03-22T01:47:09.006Z,25.50
2023-03-22T01:47:31.842Z,26.70
2023-03-22T01:47:56.244Z,21.90
2023-03-22T01:48:25.759Z,20.40
2023-03-22T01:48:48.882Z,18.30
2023-03-22T01:49:13.593Z,17.10
2023-03-22T01:49:36.416Z,19.50
2023-03-22T01:49:59.158Z,20.70
2023-03-22T01:50:21.906Z,21.70
2023-03-22T01:50:48.222Z,26.50
2023-03-22T01:51:12.316Z,27.70
2023-03-22T01:51:35.121Z,25.50
2023-03-22T01:51:58.649Z,26.00
2023-03-22T01:52:21.381Z,22.10
2023-03-22T01:52:44.174Z,22.00
2023-03-22T01:53:06.894Z,18.90
2023-03-22T01:53:30.426Z,18.00
2023-03-22T01:53:54.893Z,19.50
2023-03-22T01:54:20.255Z,19.00
2023-03-22T01:54:44.367Z,25.80
2023-03-22T01:55:09.610Z,19.90
2023-03-22T01:55:33.792Z,19.60
2023-03-22T01:55:56.639Z,17.70
2023-03-22T01:56:21.152Z,18.20
2023-03-22T01:56:43.980Z,21.00
2023-03-22T01:57:06.737Z,17.60
2023-03-22T01:57:29.462Z,21.00
2023-03-22T01:57:54.458Z,17.30
2023-03-22T01:58:18.456Z,17.90
2023-03-22T01:58:41.130Z,18.20
2023-03-22T01:59:04.150Z,18.10
2023-03-22T01:59:26.877Z,12.40
2023-03-22T01:59:50.697Z,13.90
2023-03-22T02:00:16.083Z,18.00
2023-03-22T02:00:39.050Z,15.80
2023-03-22T02:01:02.392Z,21.10
2023-03-22T02:01:25.995Z,20.90
2023-03-22T02:01:50.025Z,26.20
2023-03-22T02:02:15.217Z,23.50
2023-03-22T02:02:38.048Z,25.40
2023-03-22T02:03:01.280Z,23.90
2023-03-22T02:03:30.409Z,22.70
2023-03-22T02:03:56.008Z,25.40
2023-03-22T02:04:20.256Z,24.50
2023-03-22T02:04:43.003Z,21.10
2023-03-22T02:05:08.612Z,24.40
2023-03-22T02:05:31.479Z,23.60
2023-03-22T02:05:55.367Z,24.30
2023-03-22T02:06:18.246Z,31.50
2023-03-22T02:06:43.158Z,27.60
2023-03-22T02:07:10.257Z,23.30
2023-03-22T02:07:33.031Z,25.20
2023-03-22T02:07:55.842Z,29.80
2023-03-22T02:08:18.630Z,27.50
2023-03-22T02:08:42.777Z,28.60
2023-03-22T02:09:06.092Z,33.90
2023-03-22T02:09:30.096Z,26.90
2023-03-22T02:09:53.104Z,29.80
2023-03-22T02:10:17.282Z,28.90
2023-03-22T02:10:41.397Z,26.70
2023-03-22T02:11:04.696Z,20.50
2023-03-22T02:11:30.881Z,20.00
2023-03-22T02:11:56.729Z,22.10
2023-03-22T02:12:25.518Z,22.10
2023-03-22T02:12:59.688Z,28.60
2023-03-22T02:13:39.043Z,27.60
2023-03-22T02:14:23.631Z,20.80
2023-03-22T02:14:56.959Z,23.70
2023-03-22T02:15:21.935Z,26.70
2023-03-22T02:15:47.446Z,27.50
2023-03-22T02:16:16.706Z,27.40
2023-03-22T02:16:44.524Z,28.00
2023-03-22T02:17:17.574Z,27.10
2023-03-22T02:17:45.286Z,24.90
2023-03-22T02:18:28.811Z,27.90
2023-03-22T02:18:58.952Z,29.80
2023-03-22T02:19:47.286Z,27.80
2023-03-22T02:20:42.534Z,29.60
2023-03-22T02:21:30.241Z,30.60
2023-03-22T02:22:21.990Z,27.50
2023-03-22T02:23:19.848Z,29.20
2023-03-22T02:24:24.227Z,33.80
2023-03-22T02:25:19.306Z,32.40
2023-03-22T02:26:32.340Z,22.80
2023-03-22T02:27:40.655Z,22.30
2023-03-22T02:28:14.813Z,23.20
2023-03-22T02:28:42.730Z,44.30
2023-03-22T02:29:07.525Z,43.60
2023-03-22T02:29:34.934Z,42.00
2023-03-22T02:30:04.605Z,39.80
2023-03-22T02:31:01.273Z,34.90
2023-03-22T02:31:43.664Z,32.90
2023-03-22T02:32:42.957Z,40.70
2023-03-22T02:33:44.110Z,40.60
2023-03-22T02:34:32.898Z,43.70
2023-03-22T02:35:14.810Z,43.00
2023-03-22T02:35:47.209Z,26.10
2023-03-22T02:36:30.932Z,24.70
2023-03-22T02:37:22.026Z,37.80
2023-03-22T02:38:11.032Z,46.60
2023-03-22T02:38:57.933Z,44.10
2023-03-22T02:39:26.911Z,48.40
2023-03-22T02:39:50.543Z,48.50
2023-03-22T02:40:14.550Z,52.30
2023-03-22T02:40:38.949Z,54.40
2023-03-22T02:41:08.338Z,55.20
2023-03-22T02:41:37.399Z,51.80
2023-03-22T02:42:09.927Z,56.80
2023-03-22T02:42:40.421Z,57.40
2023-03-22T02:43:07.007Z,56.50
2023-03-22T02:43:34.596Z,55.20
2023-03-22T02:44:04.502Z,62.80
2023-03-22T02:44:29.761Z,61.20
2023-03-22T02:44:58.306Z,67.70
2023-03-22T02:45:23.820Z,58.40
2023-03-22T02:45:48.285Z,61.40
2023-03-22T02:46:12.503Z,63.30
2023-03-22T02:46:38.018Z,72.60
2023-03-22T02:47:02.550Z,70.50
2023-03-22T02:47:28.644Z,72.60
2023-03-22T02:47:55.522Z,71.80
2023-03-22T02:48:23.210Z,76.00
2023-03-22T02:48:50.870Z,67.90
2023-03-22T02:49:18.394Z,73.50
2023-03-22T02:49:41.972Z,68.70
2023-03-22T02:50:08.972Z,58.20
2023-03-22T02:50:35.705Z,63.30
2023-03-22T02:51:00.769Z,62.40
2023-03-22T02:51:25.111Z,67.20
2023-03-22T02:51:49.437Z,58.20
2023-03-22T02:52:17.570Z,56.00
2023-03-22T02:52:42.317Z,62.60
2023-03-22T02:53:07.264Z,60.70
2023-03-22T02:53:31.823Z,62.80
2023-03-22T02:53:58.047Z,60.20
2023-03-22T02:54:22.785Z,59.70
2023-03-22T02:54:47.680Z,65.30
2023-03-22T02:55:12.283Z,60.70
2023-03-22T02:55:37.261Z,61.10
2023-03-22T02:56:01.113Z,59.00
2023-03-22T02:56:25.920Z,60.40
2023-03-22T02:56:50.243Z,63.90
2023-03-22T02:57:15.870Z,60.90
2023-03-22T02:57:40.957Z,66.20
2023-03-22T02:58:05.297Z,63.00
2023-03-22T02:58:29.435Z,63.90
2023-03-22T02:58:53.561Z,64.00
2023-03-22T02:59:16.969Z,61.90
2023-03-22T02:59:41.165Z,62.80
2023-03-22T03:00:08.829Z,64.60
2023-03-22T03:00:32.466Z,71.90
2023-03-22T03:00:58.142Z,66.20
2023-03-22T03:01:24.555Z,69.10
2023-03-22T03:01:49.504Z,66.30
2023-03-22T03:02:13.680Z,69.50
2023-03-22T03:02:36.377Z,72.00
2023-03-22T03:03:03.199Z,85.40
2023-03-22T03:03:29.376Z,86.50
2023-03-22T03:03:52.984Z,84.70
2023-03-22T03:04:17.094Z,88.50
2023-03-22T03:04:42.297Z,86.20
2023-03-22T03:05:05.509Z,90.30
2023-03-22T03:05:30.334Z,91.30
2023-03-22T03:05:55.999Z,92.20
2023-03-22T03:06:19.499Z,92.10
2023-03-22T03:06:46.105Z,91.00
2023-03-22T03:07:09.946Z,90.60
2023-03-22T03:07:32.772Z,91.20
2023-03-22T03:07:59.982Z,92.60
2023-03-22T03:08:23.827Z,91.10
2023-03-22T03:08:47.113Z,85.40
2023-03-22T03:09:13.926Z,87.30
2023-03-22T03:09:37.074Z,81.10
2023-03-22T03:09:59.834Z,79.90
2023-03-22T03:10:22.564Z,83.10
2023-03-22T03:10:45.335Z,82.50
2023-03-22T03:11:09.158Z,83.20
2023-03-22T03:11:32.429Z,83.10
2023-03-22T03:11:55.396Z,84.30
2023-03-22T03:12:18.801Z,80.70
2023-03-22T03:12:41.453Z,91.40
2023-03-22T03:13:06.347Z,76.30
2023-03-22T03:13:29.118Z,83.90
2023-03-22T03:13:51.834Z,87.60
2023-03-22T03:14:24.794Z,84.80
2023-03-22T03:14:47.525Z,87.10
2023-03-22T03:15:13.783Z,89.90
2023-03-22T03:15:36.473Z,87.70
2023-03-22T03:15:59.734Z,88.40
2023-03-22T03:16:23.217Z,87.00
2023-03-22T03:16:48.384Z,88.70
2023-03-22T03:17:16.485Z,87.00
2023-03-22T03:17:45.210Z,90.20
2023-03-22T03:18:19.499Z,89.20
2023-03-22T03:18:47.218Z,90.20
2023-03-22T03:19:12.410Z,93.50
2023-03-22T03:19:38.805Z,92.00
2023-03-22T03:20:22.256Z,92.30
2023-03-22T03:20:52.346Z,96.90
2023-03-22T03:21:21.939Z,92.70
2023-03-22T03:21:48.650Z,94.90
2023-03-22T03:22:22.720Z,93.80
2023-03-22T03:22:51.809Z,93.40
2023-03-22T03:23:20.170Z,93.30
2023-03-22T03:23:49.340Z,93.90
2023-03-22T03:24:18.971Z,96.50
2023-03-22T03:24:45.205Z,98.90
2023-03-22T03:25:10.140Z,96.80
2023-03-22T03:25:34.737Z,98.70
2023-03-22T03:26:01.723Z,95.00
2023-03-22T03:26:28.266Z,98.90
2023-03-22T03:26:56.488Z,97.50
2023-03-22T03:27:23.237Z,97.50
2023-03-22T03:27:50.265Z,99.90
2023-03-22T03:28:15.180Z,99.00
2023-03-22T03:28:40.084Z,99.70
2023-03-22T03:29:04.295Z,97.40
2023-03-22T03:29:33.770Z,99.90
2023-03-22T03:30:00.012Z,99.90
2023-03-22T03:30:24.727Z,99.10
2023-03-22T03:30:50.090Z,99.40
2023-03-22T03:31:20.179Z,99.20
2023-03-22T03:31:43.923Z,99.00
2023-03-22T03:32:08.765Z,97.90
2023-03-22T03:32:35.364Z,98.20
2023-03-22T03:32:59.592Z,98.20
2023-03-22T03:33:22.337Z,97.80
2023-03-22T03:33:48.173Z,97.90
2023-03-22T03:34:14.814Z,98.80
2023-03-22T03:34:40.012Z,98.90
2023-03-22T03:35:06.224Z,99.90
2023-03-22T03:35:32.694Z,99.90
2023-03-22T03:35:58.759Z,99.90
2023-03-22T03:36:21.568Z,99.90
2023-03-22T03:36:47.356Z,99.90
2023-03-22T03:37:11.812Z,99.90
2023-03-22T03:37:35.405Z,99.90
2023-03-22T03:38:01.771Z,99.90
2023-03-22T03:38:26.731Z,99.90
2023-03-22T03:38:52.329Z,99.90
2023-03-22T03:39:16.576Z,99.90
2023-03-22T03:39:41.794Z,99.90
2023-03-22T03:40:09.775Z,99.90
2023-03-22T03:40:33.989Z,99.90
2023-03-22T03:40:59.189Z,99.90
2023-03-22T03:41:23.942Z,99.90
2023-03-22T03:41:46.890Z,99.90
2023-03-22T03:42:12.943Z,99.90
2023-03-22T03:42:35.677Z,99.90
2023-03-22T03:42:59.232Z,99.90
2023-03-22T03:43:21.891Z,99.90
2023-03-22T03:43:44.562Z,99.90
2023-03-22T03:44:07.235Z,99.90
2023-03-22T03:44:30.563Z,99.90
2023-03-22T03:44:53.276Z,99.90
2023-03-22T03:45:16.006Z,99.90
2023-03-22T03:45:38.723Z,99.90
2023-03-22T03:46:01.510Z,99.90
2023-03-22T03:46:24.475Z,99.90
2023-03-22T03:46:47.296Z,99.90
2023-03-22T03:47:09.973Z,99.90
2023-03-22T03:47:32.717Z,99.90
2023-03-22T03:47:57.853Z,99.90
2023-03-22T03:48:22.107Z,99.90
2023-03-22T03:48:47.800Z,99.90
2023-03-22T03:49:10.489Z,99.90
2023-03-22T03:49:33.295Z,99.90
2023-03-22T03:49:58.535Z,99.90
2023-03-22T03:50:21.271Z,99.90
2023-03-22T03:50:43.940Z,99.90
2023-03-22T03:51:07.415Z,99.90
2023-03-22T03:51:30.150Z,99.90
2023-03-22T03:51:55.741Z,99.90
2023-03-22T03:52:18.396Z,99.90
2023-03-22T03:52:41.452Z,99.90
2023-03-22T03:53:04.227Z,99.90
2023-03-22T03:53:26.911Z,99.90
2023-03-22T03:53:49.610Z,99.90
2023-03-22T03:54:14.726Z,99.90
2023-03-22T03:54:38.836Z,99.90
2023-03-22T03:55:01.681Z,99.90
2023-03-22T03:55:24.491Z,99.90
2023-03-22T03:55:47.189Z,99.90
2023-03-22T03:56:12.671Z,99.90
2023-03-22T03:56:35.355Z,99.90
2023-03-22T03:57:03.462Z,99.90
2023-03-22T03:57:27.526Z,99.90
2023-03-22T03:57:50.287Z,99.90
2023-03-22T03:58:13.066Z,99.90
2023-03-22T03:58:38.238Z,99.90
2023-03-22T03:59:01.129Z,99.90
2023-03-22T03:59:23.774Z,99.90
2023-03-22T03:59:49.007Z,99.90
2023-03-22T04:00:14.992Z,99.90
2023-03-22T04:00:38.215Z,99.90
2023-03-22T04:01:01.320Z,99.90
2023-03-22T04:01:24.328Z,99.90
2023-03-22T04:01:50.438Z,99.90
2023-03-22T04:02:13.381Z,99.90
2023-03-22T04:02:36.162Z,99.90
2023-03-22T04:02:58.906Z,99.90
2023-03-22T04:03:21.712Z,99.90
2023-03-22T04:03:44.424Z,99.90
2023-03-22T04:04:07.601Z,99.90
2023-03-22T04:04:30.323Z,99.90
2023-03-22T04:04:53.040Z,99.90
2023-03-22T04:05:18.513Z,99.90
2023-03-22T04:05:41.668Z,99.90
2023-03-22T04:06:04.608Z,99.90
2023-03-22T04:06:27.322Z,99.90
2023-03-22T04:06:50.049Z,99.90
2023-03-22T04:07:12.784Z,99.90
2023-03-22T04:07:35.527Z,99.90
2023-03-22T04:07:58.297Z,99.90
2023-03-22T04:08:23.402Z,99.90
2023-03-22T04:08:46.191Z,99.90
2023-03-22T04:09:08.959Z,99.90
2023-03-22T04:09:32.819Z,99.90
2023-03-22T04:09:56.972Z,99.90
2023-03-22T04:10:19.767Z,99.90
2023-03-22T04:10:42.554Z,99.90
2023-03-22T04:11:05.477Z,99.90
2023-03-22T04:11:28.158Z,99.90
2023-03-22T04:11:51.528Z,99.90
2023-03-22T04:12:14.217Z,99.90
2023-03-22T04:12:36.966Z,99.90
2023-03-22T04:12:59.672Z,99.90
2023-03-22T04:13:24.685Z,99.90
2023-03-22T04:13:47.443Z,99.90
2023-03-22T04:14:10.725Z,99.90
2023-03-22T04:14:33.461Z,99.90
2023-03-22T04:14:56.161Z,99.90
2023-03-22T04:15:18.878Z,99.90
2023-03-22T04:15:41.607Z,99.90
2023-03-22T04:16:04.547Z,99.90
2023-03-22T04:16:27.292Z,99.90
2023-03-22T04:16:50.102Z,99.90
2023-03-22T04:17:12.825Z,99.90
2023-03-22T04:17:35.533Z,99.90
2023-03-22T04:18:00.580Z,99.90
2023-03-22T04:18:23.692Z,99.90
2023-03-22T04:18:46.479Z,99.90
2023-03-22T04:19:12.459Z,99.90
2023-03-22T04:19:35.552Z,99.90
2023-03-22T04:19:58.287Z,99.90
2023-03-22T04:20:23.285Z,99.90
2023-03-22T04:20:46.962Z,99.90
2023-03-22T04:21:12.277Z,99.90
2023-03-22T04:21:34.918Z,99.90
2023-03-22T04:21:57.597Z,99.90
2023-03-22T04:22:20.269Z,99.90
2023-03-22T04:22:43.378Z,99.90
2023-03-22T04:23:06.080Z,99.90
2023-03-22T04:23:28.888Z,99.90
2023-03-22T04:23:51.533Z,99.90
2023-03-22T04:24:17.499Z,99.90
2023-03-22T04:24:41.473Z,99.90
2023-03-22T04:25:06.394Z,99.90
2023-03-22T04:25:30.123Z,99.90
2023-03-22T04:25:53.798Z,99.90
2023-03-22T04:26:18.746Z,99.90
2023-03-22T04:26:41.608Z,99.90
2023-03-22T04:27:04.404Z,99.90
2023-03-22T04:27:29.368Z,99.90
2023-03-22T04:27:52.183Z,99.90
2023-03-22T04:28:14.915Z,99.90
2023-03-22T04:28:37.596Z,99.90
2023-03-22T04:29:00.653Z,99.90
2023-03-22T04:29:24.686Z,99.90
2023-03-22T04:29:48.339Z,99.90
2023-03-22T04:30:12.477Z,99.90
2023-03-22T04:30:36.512Z,99.90
2023-03-22T04:30:59.620Z,99.90
2023-03-22T04:31:22.437Z,99.90
2023-03-22T04:31:45.202Z,99.90
2023-03-22T04:32:07.882Z,99.90
2023-03-22T04:32:33.017Z,99.90
2023-03-22T04:32:56.510Z,99.90
2023-03-22T04:33:19.420Z,99.90
2023-03-22T04:33:47.089Z,99.90
2023-03-22T04:34:09.810Z,99.90
2023-03-22T04:34:32.817Z,99.90
2023-03-22T04:34:55.583Z,99.90
2023-03-22T04:35:18.428Z,99.90
2023-03-22T04:35:41.158Z,99.90
2023-03-22T04:36:05.996Z,99.90
2023-03-22T04:36:31.230Z,99.90
2023-03-22T04:36:54.609Z,99.90
2023-03-22T04:37:17.351Z,99.90
2023-03-22T04:37:40.027Z,99.90
2023-03-22T04:38:02.733Z,99.90
2023-03-22T04:38:25.469Z,99.90
2023-03-22T04:38:48.150Z,99.90
2023-03-22T04:39:11.495Z,99.90
2023-03-22T04:39:34.245Z,99.90
2023-03-22T04:39:57.021Z,99.90
2023-03-22T04:40:21.830Z,99.90
2023-03-22T04:40:46.900Z,99.90
2023-03-22T04:41:09.730Z,99.90
2023-03-22T04:41:32.411Z,99.90
2023-03-22T04:41:55.150Z,99.90
2023-03-22T04:42:17.779Z,99.90
2023-03-22T04:42:40.656Z,99.90
2023-03-22T04:43:04.298Z,99.90
2023-03-22T04:43:27.911Z,99.90
2023-03-22T04:43:51.222Z,99.90
2023-03-22T04:44:16.420Z,99.90
2023-03-22T04:44:40.111Z,99.90
2023-03-22T04:45:04.193Z,99.90
2023-03-22T04:45:29.394Z,99.90
2023-03-22T04:45:55.229Z,99.90
2023-03-22T04:46:18.188Z,99.90
2023-03-22T04:46:42.870Z,99.90
2023-03-22T04:47:06.100Z,99.90
2023-03-22T04:47:28.800Z,99.90
2023-03-22T04:47:51.557Z,99.90
2023-03-22T04:48:14.351Z,99.90
2023-03-22T04:48:37.986Z,99.90
2023-03-22T04:49:01.291Z,99.90
2023-03-22T04:49:23.996Z,99.90
2023-03-22T04:49:47.705Z,99.90
2023-03-22T04:50:10.836Z,99.90
2023-03-22T04:50:33.496Z,99.90
2023-03-22T04:50:56.222Z,99.90
2023-03-22T04:51:18.912Z,99.90
2023-03-22T04:51:41.618Z,99.90
2023-03-22T04:52:04.351Z,99.90
2023-03-22T04:52:27.152Z,99.90
2023-03-22T04:52:50.139Z,99.90
2023-03-22T04:53:12.945Z,99.90
2023-03-22T04:53:38.974Z,99.90
2023-03-22T04:54:01.732Z,99.90
2023-03-22T04:54:24.522Z,99.90
2023-03-22T04:54:47.186Z,99.90
2023-03-22T04:55:10.081Z,99.90
2023-03-22T04:55:34.309Z,99.90
2023-03-22T04:55:58.775Z,99.90
2023-03-22T04:56:21.670Z,99.90
2023-03-22T04:56:44.319Z,99.90
2023-03-22T04:57:07.380Z,99.90
2023-03-22T04:57:31.730Z,99.90
2023-03-22T04:57:55.053Z,99.90
2023-03-22T04:58:22.227Z,99.90
2023-03-22T04:58:44.970Z,99.90
2023-03-22T04:59:07.675Z,99.90
2023-03-22T04:59:30.334Z,99.90
2023-03-22T04:59:53.068Z,99.90
2023-03-22T05:00:19.038Z,99.90
2023-03-22T05:00:42.635Z,99.90
2023-03-22T05:01:06.104Z,99.90
2023-03-22T05:01:28.825Z,99.90
2023-03-22T05:01:51.852Z,99.90
2023-03-22T05:02:14.544Z,99.90
2023-03-22T05:02:41.598Z,99.90
2023-03-22T05:03:05.969Z,99.90
2023-03-22T05:03:28.827Z,99.90
2023-03-22T05:03:51.689Z,99.90
2023-03-22T05:04:14.473Z,99.90
2023-03-22T05:04:39.776Z,99.90
2023-03-22T05:05:02.436Z,99.90
2023-03-22T05:05:25.245Z,99.90
2023-03-22T05:05:52.799Z,99.90
2023-03-22T05:06:15.605Z,99.90
2023-03-22T05:06:40.694Z,99.90
2023-03-22T05:07:03.500Z,99.90
2023-03-22T05:07:26.309Z,99.90
2023-03-22T05:07:49.010Z,99.90
2023-03-22T05:08:14.470Z,99.90
2023-03-22T05:08:40.221Z,99.90
2023-03-22T05:09:03.041Z,99.90
2023-03-22T05:09:25.794Z,99.90
2023-03-22T05:09:48.544Z,99.90
2023-03-22T05:10:11.318Z,99.90
2023-03-22T05:10:39.368Z,99.90
2023-03-22T05:11:05.752Z,99.90
2023-03-22T05:11:28.507Z,99.90
2023-03-22T05:11:53.404Z,99.90
2023-03-22T05:12:16.390Z,99.90
2023-03-22T05:12:41.197Z,99.90
2023-03-22T05:13:04.006Z,99.90
2023-03-22T05:13:27.837Z,99.90
2023-03-22T05:13:50.471Z,99.90
2023-03-22T05:14:13.245Z,99.90
2023-03-22T05:14:36.226Z,1.00
2023-03-22T05:15:01.104Z,1.00
2023-03-22T05:15:23.869Z,1.00
2023-03-22T05:15:49.785Z,99.90
2023-03-22T05:16:12.822Z,99.90
2023-03-22T05:16:36.097Z,99.90
2023-03-22T05:16:58.819Z,1.00
2023-03-22T05:17:21.667Z,1.00
2023-03-22T05:17:44.485Z,1.00
2023-03-22T05:18:09.359Z,1.00
2023-03-22T05:18:32.942Z,1.00
2023-03-22T05:18:57.924Z,1.00
2023-03-22T05:19:22.494Z,1.00
2023-03-22T05:19:48.420Z,1.00
2023-03-22T05:20:11.730Z,1.00
2023-03-22T05:20:37.758Z,1.00
2023-03-22T05:21:03.851Z,1.00
2023-03-22T05:21:29.544Z,1.00
2023-03-22T05:21:58.322Z,1.00
2023-03-22T05:22:22.572Z,1.00
2023-03-22T05:22:45.951Z,1.00
2023-03-22T05:23:09.964Z,1.00
2023-03-22T05:23:32.724Z,1.00
2023-03-22T05:23:56.591Z,1.00
2023-03-22T05:24:22.490Z,1.00
2023-03-22T05:24:48.627Z,1.00
2023-03-22T05:25:11.837Z,1.00
2023-03-22T05:25:36.076Z,1.00